sensor_id;sensor_type;location;lat;lon;timestamp;pressure;altitude;pressure_sealevel;temperature;humidity
24280;BME280;12395;42.808;23.408;2023-01-23T00:00:17;95353.38;;;7.76;100.00
24280;BME280;12395;42.808;23.408;2023-01-23T00:02:42;95362.19;;;7.69;100.00
24280;BME280;12395;42.808;23.408;2023-01-23T00:05:08;95368.00;;;7.64;100.00
24280;BME280;12395;42.808;23.408;2023-01-23T00:07:33;95359.44;;;7.62;100.00
24280;BME280;12395;42.808;23.408;2023-01-23T00:09:59;95362.59;;;7.58;100.00
24280;BME280;12395;42.808;23.408;2023-01-23T00:12:24;95357.69;;;7.55;100.00
24280;BME280;12395;42.808;23.408;2023-01-23T00:14:49;95354.59;;;7.51;100.00
24280;BME280;12395;42.808;23.408;2023-01-23T00:17:15;95361.03;;;7.49;100.00
24280;BME280;12395;42.808;23.408;2023-01-23T00:19:40;95354.59;;;7.51;100.00
24280;BME280;12395;42.808;23.408;2023-01-23T00:22:05;95364.31;;;7.51;100.00
24280;BME280;12395;42.808;23.408;2023-01-23T00:24:34;95357.28;;;7.43;100.00
24280;BME280;12395;42.808;23.408;2023-01-23T00:26:59;95352.09;;;7.35;100.00
24280;BME280;12395;42.808;23.408;2023-01-23T00:29:25;95349.97;;;7.31;100.00
24280;BME280;12395;42.808;23.408;2023-01-23T00:31:50;95348.84;;;7.25;100.00
24280;BME280;12395;42.808;23.408;2023-01-23T00:34:15;95344.94;;;7.21;100.00
24280;BME280;12395;42.808;23.408;2023-01-23T00:36:42;95347.75;;;7.20;100.00
24280;BME280;12395;42.808;23.408;2023-01-23T00:39:09;95349.56;;;7.19;100.00
24280;BME280;12395;42.808;23.408;2023-01-23T00:41:36;95358.22;;;7.28;100.00
24280;BME280;12395;42.808;23.408;2023-01-23T00:44:01;95344.00;;;7.37;100.00
24280;BME280;12395;42.808;23.408;2023-01-23T00:46:27;95340.75;;;7.49;100.00
24280;BME280;12395;42.808;23.408;2023-01-23T00:48:52;95337.34;;;7.63;100.00
24280;BME280;12395;42.808;23.408;2023-01-23T00:51:17;95347.31;;;7.76;100.00
24280;BME280;12395;42.808;23.408;2023-01-23T00:53:43;95337.31;;;7.86;100.00
24280;BME280;12395;42.808;23.408;2023-01-23T00:56:08;95345.50;;;7.91;100.00
24280;BME280;12395;42.808;23.408;2023-01-23T00:58:34;95354.50;;;7.97;100.00
24280;BME280;12395;42.808;23.408;2023-01-23T01:00:59;95354.69;;;7.95;100.00
24280;BME280;12395;42.808;23.408;2023-01-23T01:03:25;95362.06;;;8.00;100.00
24280;BME280;12395;42.808;23.408;2023-01-23T01:05:50;95356.59;;;8.01;100.00
24280;BME280;12395;42.808;23.408;2023-01-23T01:08:16;95357.25;;;8.03;100.00
24280;BME280;12395;42.808;23.408;2023-01-23T01:10:41;95352.69;;;7.97;100.00
24280;BME280;12395;42.808;23.408;2023-01-23T01:13:07;95361.41;;;7.98;100.00
24280;BME280;12395;42.808;23.408;2023-01-23T01:15:33;95358.31;;;7.94;100.00
24280;BME280;12395;42.808;23.408;2023-01-23T01:17:58;95359.22;;;7.87;100.00
24280;BME280;12395;42.808;23.408;2023-01-23T01:20:24;95355.47;;;7.81;100.00
24280;BME280;12395;42.808;23.408;2023-01-23T01:22:50;95357.84;;;7.76;100.00
24280;BME280;12395;42.808;23.408;2023-01-23T01:25:15;95361.81;;;7.72;100.00
24280;BME280;12395;42.808;23.408;2023-01-23T01:27:41;95359.75;;;7.67;100.00
24280;BME280;12395;42.808;23.408;2023-01-23T01:30:06;95379.53;;;7.63;100.00
24280;BME280;12395;42.808;23.408;2023-01-23T01:32:35;95378.88;;;7.61;100.00
24280;BME280;12395;42.808;23.408;2023-01-23T01:35:00;95380.25;;;7.57;100.00
24280;BME280;12395;42.808;23.408;2023-01-23T01:37:25;95388.34;;;7.56;100.00
24280;BME280;12395;42.808;23.408;2023-01-23T01:39:51;95389.31;;;7.55;100.00
24280;BME280;12395;42.808;23.408;2023-01-23T01:42:16;95384.75;;;7.49;100.00
24280;BME280;12395;42.808;23.408;2023-01-23T01:44:52;95393.03;;;7.46;100.00
24280;BME280;12395;42.808;23.408;2023-01-23T01:47:17;95398.66;;;7.43;100.00
24280;BME280;12395;42.808;23.408;2023-01-23T01:49:42;95404.75;;;7.43;100.00
24280;BME280;12395;42.808;23.408;2023-01-23T01:52:08;95409.66;;;7.46;100.00
24280;BME280;12395;42.808;23.408;2023-01-23T01:57:19;95410.66;;;7.45;100.00
24280;BME280;12395;42.808;23.408;2023-01-23T01:59:56;95404.50;;;7.53;100.00
24280;BME280;12395;42.808;23.408;2023-01-23T02:04:49;95408.84;;;7.68;100.00
24280;BME280;12395;42.808;23.408;2023-01-23T02:07:20;95407.78;;;7.77;100.00
24280;BME280;12395;42.808;23.408;2023-01-23T02:09:46;95406.88;;;7.85;100.00
24280;BME280;12395;42.808;23.408;2023-01-23T02:12:12;95403.25;;;7.86;100.00
24280;BME280;12395;42.808;23.408;2023-01-23T02:14:38;95402.81;;;7.97;100.00
24280;BME280;12395;42.808;23.408;2023-01-23T02:17:03;95403.81;;;8.11;100.00
24280;BME280;12395;42.808;23.408;2023-01-23T02:22:25;95406.34;;;8.27;100.00
24280;BME280;12395;42.808;23.408;2023-01-23T02:24:58;95409.09;;;8.33;100.00
24280;BME280;12395;42.808;23.408;2023-01-23T02:27:25;95404.69;;;8.40;100.00
24280;BME280;12395;42.808;23.408;2023-01-23T02:29:50;95404.00;;;8.46;100.00
24280;BME280;12395;42.808;23.408;2023-01-23T02:32:16;95405.00;;;8.45;100.00
24280;BME280;12395;42.808;23.408;2023-01-23T02:34:43;95403.19;;;8.46;100.00
24280;BME280;12395;42.808;23.408;2023-01-23T02:37:09;95416.66;;;8.51;100.00
24280;BME280;12395;42.808;23.408;2023-01-23T02:39:34;95420.28;;;8.50;100.00
24280;BME280;12395;42.808;23.408;2023-01-23T02:42:01;95410.00;;;8.55;100.00
24280;BME280;12395;42.808;23.408;2023-01-23T02:44:27;95401.72;;;8.58;100.00
24280;BME280;12395;42.808;23.408;2023-01-23T02:46:54;95406.34;;;8.56;100.00
24280;BME280;12395;42.808;23.408;2023-01-23T02:49:20;95400.53;;;8.61;100.00
24280;BME280;12395;42.808;23.408;2023-01-23T02:51:46;95408.34;;;8.69;100.00
24280;BME280;12395;42.808;23.408;2023-01-23T02:54:11;95408.97;;;8.71;100.00
24280;BME280;12395;42.808;23.408;2023-01-23T02:56:37;95408.97;;;8.71;100.00
24280;BME280;12395;42.808;23.408;2023-01-23T02:59:02;95415.38;;;8.76;100.00
24280;BME280;12395;42.808;23.408;2023-01-23T03:01:46;95411.72;;;8.77;100.00
24280;BME280;12395;42.808;23.408;2023-01-23T03:04:12;95402.50;;;8.73;100.00
24280;BME280;12395;42.808;23.408;2023-01-23T03:06:37;95413.47;;;8.70;100.00
24280;BME280;12395;42.808;23.408;2023-01-23T03:09:03;95410.44;;;8.73;100.00
24280;BME280;12395;42.808;23.408;2023-01-23T03:11:29;95403.16;;;8.75;100.00
24280;BME280;12395;42.808;23.408;2023-01-23T03:13:55;95400.16;;;8.78;100.00
24280;BME280;12395;42.808;23.408;2023-01-23T03:16:20;95404.16;;;8.74;100.00
24280;BME280;12395;42.808;23.408;2023-01-23T03:18:45;95399.88;;;8.73;100.00
24280;BME280;12395;42.808;23.408;2023-01-23T03:21:11;95400.69;;;8.74;100.00
24280;BME280;12395;42.808;23.408;2023-01-23T03:23:38;95399.06;;;8.73;100.00
24280;BME280;12395;42.808;23.408;2023-01-23T03:26:03;95402.16;;;8.76;100.00
24280;BME280;12395;42.808;23.408;2023-01-23T03:28:29;95412.00;;;8.82;100.00
24280;BME280;12395;42.808;23.408;2023-01-23T03:31:13;95404.41;;;8.79;100.00
24280;BME280;12395;42.808;23.408;2023-01-23T03:33:39;95405.25;;;8.80;100.00
24280;BME280;12395;42.808;23.408;2023-01-23T03:36:07;95414.34;;;8.77;100.00
24280;BME280;12395;42.808;23.408;2023-01-23T03:38:33;95412.53;;;8.78;100.00
24280;BME280;12395;42.808;23.408;2023-01-23T03:40:58;95421.19;;;8.72;100.00
24280;BME280;12395;42.808;23.408;2023-01-23T03:43:42;95416.09;;;8.70;100.00
24280;BME280;12395;42.808;23.408;2023-01-23T03:46:07;95420.56;;;8.70;100.00
24280;BME280;12395;42.808;23.408;2023-01-23T03:48:32;95420.91;;;8.67;100.00
24280;BME280;12395;42.808;23.408;2023-01-23T03:50:58;95424.09;;;8.62;100.00
24280;BME280;12395;42.808;23.408;2023-01-23T03:53:23;95427.38;;;8.64;100.00
24280;BME280;12395;42.808;23.408;2023-01-23T03:55:49;95435.06;;;8.59;100.00
24280;BME280;12395;42.808;23.408;2023-01-23T03:58:14;95433.41;;;8.58;100.00
24280;BME280;12395;42.808;23.408;2023-01-23T04:00:40;95433.03;;;8.61;100.00
24280;BME280;12395;42.808;23.408;2023-01-23T04:03:06;95432.13;;;8.69;100.00
24280;BME280;12395;42.808;23.408;2023-01-23T04:05:31;95424.19;;;8.69;100.00
24280;BME280;12395;42.808;23.408;2023-01-23T04:07:56;95431.47;;;8.67;100.00
24280;BME280;12395;42.808;23.408;2023-01-23T04:10:22;95442.16;;;8.73;100.00
24280;BME280;12395;42.808;23.408;2023-01-23T04:12:47;95443.16;;;8.72;100.00
24280;BME280;12395;42.808;23.408;2023-01-23T04:15:12;95435.25;;;8.72;100.00
24280;BME280;12395;42.808;23.408;2023-01-23T04:17:37;95432.59;;;8.72;100.00
24280;BME280;12395;42.808;23.408;2023-01-23T04:20:03;95436.03;;;8.73;100.00
24280;BME280;12395;42.808;23.408;2023-01-23T04:22:29;95423.00;;;8.71;100.00
24280;BME280;12395;42.808;23.408;2023-01-23T04:24:54;95431.97;;;8.70;100.00
24280;BME280;12395;42.808;23.408;2023-01-23T04:27:19;95428.00;;;8.66;100.00
24280;BME280;12395;42.808;23.408;2023-01-23T04:29:44;95431.47;;;8.67;100.00
24280;BME280;12395;42.808;23.408;2023-01-23T04:32:12;95424.38;;;8.67;100.00
24280;BME280;12395;42.808;23.408;2023-01-23T04:34:37;95423.75;;;8.65;100.00
24280;BME280;12395;42.808;23.408;2023-01-23T04:37:02;95432.84;;;8.63;100.00
24280;BME280;12395;42.808;23.408;2023-01-23T04:39:27;95444.06;;;8.65;100.00
24280;BME280;12395;42.808;23.408;2023-01-23T04:41:52;95445.06;;;8.64;100.00
24280;BME280;12395;42.808;23.408;2023-01-23T04:44:18;95451.34;;;8.63;100.00
24280;BME280;12395;42.808;23.408;2023-01-23T04:46:47;95451.00;;;8.66;100.00
24280;BME280;12395;42.808;23.408;2023-01-23T04:49:17;95448.34;;;8.66;100.00
24280;BME280;12395;42.808;23.408;2023-01-23T04:51:43;95435.94;;;8.66;100.00
24280;BME280;12395;42.808;23.408;2023-01-23T04:54:09;95432.03;;;8.62;100.00
24280;BME280;12395;42.808;23.408;2023-01-23T04:56:35;95435.41;;;8.56;100.00
24280;BME280;12395;42.808;23.408;2023-01-23T04:59:00;95439.41;;;8.52;100.00
24280;BME280;12395;42.808;23.408;2023-01-23T05:01:25;95443.88;;;8.51;100.00
24280;BME280;12395;42.808;23.408;2023-01-23T05:03:51;95440.78;;;8.48;100.00
24280;BME280;12395;42.808;23.408;2023-01-23T05:06:16;95444.25;;;8.48;100.00
24280;BME280;12395;42.808;23.408;2023-01-23T05:08:41;95449.97;;;8.52;100.00
24280;BME280;12395;42.808;23.408;2023-01-23T05:11:07;95448.81;;;8.54;100.00
24280;BME280;12395;42.808;23.408;2023-01-23T05:13:32;95457.59;;;8.47;100.00
24280;BME280;12395;42.808;23.408;2023-01-23T05:15:57;95461.06;;;8.47;100.00
24280;BME280;12395;42.808;23.408;2023-01-23T05:18:23;95465.72;;;8.45;100.00
24280;BME280;12395;42.808;23.408;2023-01-23T05:20:48;95477.94;;;8.46;100.00
24280;BME280;12395;42.808;23.408;2023-01-23T05:23:13;95465.53;;;8.47;100.00
24280;BME280;12395;42.808;23.408;2023-01-23T05:25:38;95476.47;;;8.44;100.00
24280;BME280;12395;42.808;23.408;2023-01-23T05:28:04;95477.09;;;8.46;100.00
24280;BME280;12395;42.808;23.408;2023-01-23T05:30:29;95471.63;;;8.47;100.00
24280;BME280;12395;42.808;23.408;2023-01-23T05:32:54;95475.56;;;8.51;100.00
24280;BME280;12395;42.808;23.408;2023-01-23T05:35:19;95482.38;;;8.46;100.00
24280;BME280;12395;42.808;23.408;2023-01-23T05:37:51;95474.47;;;8.46;100.00
24280;BME280;12395;42.808;23.408;2023-01-23T05:42:32;95476.91;;;8.33;100.00
24280;BME280;12395;42.808;23.408;2023-01-23T05:44:57;95483.13;;;8.40;100.00
24280;BME280;12395;42.808;23.408;2023-01-23T05:47:23;95472.97;;;8.29;100.00
24280;BME280;12395;42.808;23.408;2023-01-23T05:49:48;95481.19;;;8.34;100.00
24280;BME280;12395;42.808;23.408;2023-01-23T05:52:13;95495.31;;;8.41;100.00
24280;BME280;12395;42.808;23.408;2023-01-23T05:54:39;95494.56;;;8.47;100.00
24280;BME280;12395;42.808;23.408;2023-01-23T05:57:04;95502.13;;;8.35;100.00
24280;BME280;12395;42.808;23.408;2023-01-23T05:59:30;95497.31;;;8.39;100.00
24280;BME280;12395;42.808;23.408;2023-01-23T06:01:55;95512.91;;;8.48;100.00
24280;BME280;12395;42.808;23.408;2023-01-23T06:04:20;95500.59;;;8.41;100.00
24280;BME280;12395;42.808;23.408;2023-01-23T06:06:46;95510.59;;;8.45;100.00
24280;BME280;12395;42.808;23.408;2023-01-23T06:09:11;95531.66;;;8.53;100.00
24280;BME280;12395;42.808;23.408;2023-01-23T06:11:37;95516.28;;;8.42;100.00
24280;BME280;12395;42.808;23.408;2023-01-23T06:14:03;95534.81;;;8.49;100.00
24280;BME280;12395;42.808;23.408;2023-01-23T06:16:28;95528.97;;;8.39;100.00
24280;BME280;12395;42.808;23.408;2023-01-23T06:18:53;95545.47;;;8.41;100.00
24280;BME280;12395;42.808;23.408;2023-01-23T06:21:19;95526.44;;;8.31;100.00
24280;BME280;12395;42.808;23.408;2023-01-23T06:23:45;95538.56;;;8.40;100.00
24280;BME280;12395;42.808;23.408;2023-01-23T06:26:11;95540.59;;;8.30;100.00
24280;BME280;12395;42.808;23.408;2023-01-23T06:28:37;95541.63;;;8.29;100.00
24280;BME280;12395;42.808;23.408;2023-01-23T06:31:02;95540.97;;;8.27;100.00
24280;BME280;12395;42.808;23.408;2023-01-23T06:33:29;95547.09;;;8.27;100.00
24280;BME280;12395;42.808;23.408;2023-01-23T06:36:03;95550.94;;;8.39;100.00
24280;BME280;12395;42.808;23.408;2023-01-23T06:38:29;95544.38;;;8.35;100.00
24280;BME280;12395;42.808;23.408;2023-01-23T06:40:55;95570.16;;;8.48;100.00
24280;BME280;12395;42.808;23.408;2023-01-23T06:43:21;95570.16;;;8.48;100.00
24280;BME280;12395;42.808;23.408;2023-01-23T06:45:47;95559.84;;;8.38;100.00
24280;BME280;12395;42.808;23.408;2023-01-23T06:48:13;95570.50;;;8.45;100.00
24280;BME280;12395;42.808;23.408;2023-01-23T06:50:39;95564.97;;;8.40;100.00
24280;BME280;12395;42.808;23.408;2023-01-23T06:53:05;95553.22;;;8.42;100.00
24280;BME280;12395;42.808;23.408;2023-01-23T06:55:31;95554.09;;;8.35;100.00
24280;BME280;12395;42.808;23.408;2023-01-23T06:57:56;95561.69;;;8.38;100.00
24280;BME280;12395;42.808;23.408;2023-01-23T07:00:22;95582.00;;;8.52;100.00
24280;BME280;12395;42.808;23.408;2023-01-23T07:02:48;95582.84;;;8.52;100.00
24280;BME280;12395;42.808;23.408;2023-01-23T07:05:13;95582.66;;;8.54;100.00
24280;BME280;12395;42.808;23.408;2023-01-23T07:07:39;95567.88;;;8.45;100.00
24280;BME280;12395;42.808;23.408;2023-01-23T07:10:05;95576.72;;;8.52;100.00
24280;BME280;12395;42.808;23.408;2023-01-23T07:12:30;95570.16;;;8.48;100.00
24280;BME280;12395;42.808;23.408;2023-01-23T07:14:56;95590.47;;;8.47;100.00
24280;BME280;12395;42.808;23.408;2023-01-23T07:17:21;95590.28;;;8.49;100.00
24280;BME280;12395;42.808;23.408;2023-01-23T07:19:46;95584.91;;;8.42;100.00
24280;BME280;12395;42.808;23.408;2023-01-23T07:22:15;95595.28;;;8.44;100.00
24280;BME280;12395;42.808;23.408;2023-01-23T07:24:41;95598.91;;;8.43;100.00
24280;BME280;12395;42.808;23.408;2023-01-23T07:27:06;95591.63;;;8.45;100.00
24280;BME280;12395;42.808;23.408;2023-01-23T07:29:32;95600.56;;;8.44;100.00
24280;BME280;12395;42.808;23.408;2023-01-23T07:31:57;95582.50;;;8.33;100.00
24280;BME280;12395;42.808;23.408;2023-01-23T07:34:24;95593.41;;;8.30;100.00
24280;BME280;12395;42.808;23.408;2023-01-23T07:36:50;95596.28;;;8.43;100.00
24280;BME280;12395;42.808;23.408;2023-01-23T07:39:15;95594.00;;;8.40;100.00
24280;BME280;12395;42.808;23.408;2023-01-23T07:41:41;95602.84;;;8.47;100.00
24280;BME280;12395;42.808;23.408;2023-01-23T07:44:12;95603.84;;;8.46;100.00
24280;BME280;12395;42.808;23.408;2023-01-23T07:46:38;95593.28;;;8.46;100.00
24280;BME280;12395;42.808;23.408;2023-01-23T07:49:03;95594.13;;;8.46;100.00
24280;BME280;12395;42.808;23.408;2023-01-23T07:51:29;95594.91;;;8.47;100.00
24280;BME280;12395;42.808;23.408;2023-01-23T07:53:54;95604.50;;;8.48;100.00
24280;BME280;12395;42.808;23.408;2023-01-23T07:56:20;95601.03;;;8.47;100.00
24280;BME280;12395;42.808;23.408;2023-01-23T07:58:49;95621.94;;;8.57;100.00
24280;BME280;12395;42.808;23.408;2023-01-23T08:01:15;95636.41;;;8.61;100.00
24280;BME280;12395;42.808;23.408;2023-01-23T08:03:40;95631.56;;;8.50;100.00
24280;BME280;12395;42.808;23.408;2023-01-23T08:06:06;95649.41;;;8.48;100.00
24280;BME280;12395;42.808;23.408;2023-01-23T08:08:32;95638.81;;;8.48;100.00
24280;BME280;12395;42.808;23.408;2023-01-23T08:10:57;95661.75;;;8.47;100.00
24280;BME280;12395;42.808;23.408;2023-01-23T08:13:23;95651.72;;;8.43;100.00
24280;BME280;12395;42.808;23.408;2023-01-23T08:15:48;95652.09;;;8.40;100.00
24280;BME280;12395;42.808;23.408;2023-01-23T08:18:14;95653.84;;;8.47;100.00
24280;BME280;12395;42.808;23.408;2023-01-23T08:20:39;95655.13;;;8.51;100.00
24280;BME280;12395;42.808;23.408;2023-01-23T08:23:04;95660.94;;;8.47;100.00
24280;BME280;12395;42.808;23.408;2023-01-23T08:25:30;95656.41;;;8.55;100.00
24280;BME280;12395;42.808;23.408;2023-01-23T08:27:56;95653.63;;;8.57;100.00
24280;BME280;12395;42.808;23.408;2023-01-23T08:30:21;95655.25;;;8.58;100.00
24280;BME280;12395;42.808;23.408;2023-01-23T08:32:47;95664.19;;;8.57;100.00
24280;BME280;12395;42.808;23.408;2023-01-23T08:35:12;95662.47;;;8.64;100.00
24280;BME280;12395;42.808;23.408;2023-01-23T08:37:38;95631.31;;;8.60;100.00
24280;BME280;12395;42.808;23.408;2023-01-23T08:40:05;95634.84;;;8.52;100.00
24280;BME280;12395;42.808;23.408;2023-01-23T08:42:31;95666.88;;;8.72;100.00
24280;BME280;12395;42.808;23.408;2023-01-23T08:44:56;95668.94;;;8.62;100.00
24280;BME280;12395;42.808;23.408;2023-01-23T08:47:22;95683.78;;;8.63;100.00
24280;BME280;12395;42.808;23.408;2023-01-23T08:49:48;95669.50;;;8.49;100.00
24280;BME280;12395;42.808;23.408;2023-01-23T08:52:13;95660.28;;;8.45;100.00
24280;BME280;12395;42.808;23.408;2023-01-23T08:54:39;95680.03;;;8.57;100.00
24280;BME280;12395;42.808;23.408;2023-01-23T08:57:04;95662.72;;;8.54;100.00
24280;BME280;12395;42.808;23.408;2023-01-23T08:59:29;95662.59;;;8.48;100.00
24280;BME280;12395;42.808;23.408;2023-01-23T09:01:55;95665.88;;;8.50;100.00
24280;BME280;12395;42.808;23.408;2023-01-23T09:04:20;95664.78;;;8.44;100.00
24280;BME280;12395;42.808;23.408;2023-01-23T09:06:45;95664.41;;;8.47;100.00
24280;BME280;12395;42.808;23.408;2023-01-23T09:09:11;95682.16;;;8.62;100.00
24280;BME280;12395;42.808;23.408;2023-01-23T09:11:36;95686.88;;;8.66;100.00
24280;BME280;12395;42.808;23.408;2023-01-23T09:14:02;95674.56;;;8.59;100.00
24280;BME280;12395;42.808;23.408;2023-01-23T09:16:27;95682.28;;;8.68;100.00
24280;BME280;12395;42.808;23.408;2023-01-23T09:18:54;95676.44;;;8.73;100.00
24280;BME280;12395;42.808;23.408;2023-01-23T09:21:19;95684.84;;;8.76;100.00
24280;BME280;12395;42.808;23.408;2023-01-23T09:23:45;95682.19;;;8.76;100.00
24280;BME280;12395;42.808;23.408;2023-01-23T09:26:12;95696.28;;;8.91;100.00
24280;BME280;12395;42.808;23.408;2023-01-23T09:28:39;95681.03;;;8.79;100.00
24280;BME280;12395;42.808;23.408;2023-01-23T09:31:08;95694.50;;;8.84;100.00
24280;BME280;12395;42.808;23.408;2023-01-23T09:33:35;95679.50;;;8.84;100.00
24280;BME280;12395;42.808;23.408;2023-01-23T09:36:02;95667.94;;;8.85;100.00
24280;BME280;12395;42.808;23.408;2023-01-23T09:38:27;95674.13;;;8.92;100.00
24280;BME280;12395;42.808;23.408;2023-01-23T09:40:57;95679.44;;;9.07;99.66
24280;BME280;12395;42.808;23.408;2023-01-23T09:46:21;95688.28;;;8.99;99.58
24280;BME280;12395;42.808;23.408;2023-01-23T09:56:50;95648.50;;;8.78;99.78
24280;BME280;12395;42.808;23.408;2023-01-23T09:59:26;95670.00;;;8.90;99.94
24280;BME280;12395;42.808;23.408;2023-01-23T10:01:53;95645.47;;;8.81;99.75
24280;BME280;12395;42.808;23.408;2023-01-23T10:04:19;95658.00;;;8.87;99.44
24280;BME280;12395;42.808;23.408;2023-01-23T10:09:43;95667.44;;;9.04;99.05
24280;BME280;12395;42.808;23.408;2023-01-23T10:15:18;95654.78;;;9.14;99.30
24280;BME280;12395;42.808;23.408;2023-01-23T10:18:46;95666.63;;;9.18;98.62
24280;BME280;12395;42.808;23.408;2023-01-23T10:21:00;95677.38;;;9.17;98.15
24280;BME280;12395;42.808;23.408;2023-01-23T10:23:38;95679.19;;;9.02;98.55
24280;BME280;12395;42.808;23.408;2023-01-23T10:26:11;95676.13;;;8.90;99.40
24280;BME280;12395;42.808;23.408;2023-01-23T10:28:40;95675.56;;;8.80;99.73
24280;BME280;12395;42.808;23.408;2023-01-23T10:31:15;95683.19;;;8.75;100.00
24280;BME280;12395;42.808;23.408;2023-01-23T10:36:36;95668.88;;;8.70;100.00
24280;BME280;12395;42.808;23.408;2023-01-23T10:39:15;95661.03;;;8.62;100.00
24280;BME280;12395;42.808;23.408;2023-01-23T10:41:41;95656.91;;;8.59;100.00
24280;BME280;12395;42.808;23.408;2023-01-23T10:44:17;95669.94;;;8.61;100.00
24280;BME280;12395;42.808;23.408;2023-01-23T10:46:53;95666.19;;;8.55;100.00
24280;BME280;12395;42.808;23.408;2023-01-23T10:49:33;95672.44;;;8.54;100.00
24280;BME280;12395;42.808;23.408;2023-01-23T10:52:00;95677.56;;;8.55;100.00
24280;BME280;12395;42.808;23.408;2023-01-23T10:54:27;95668.97;;;8.53;100.00
24280;BME280;12395;42.808;23.408;2023-01-23T10:57:15;95674.16;;;8.47;100.00
24280;BME280;12395;42.808;23.408;2023-01-23T10:59:59;95673.69;;;8.43;100.00
24280;BME280;12395;42.808;23.408;2023-01-23T11:02:30;95663.38;;;8.34;100.00
24280;BME280;12395;42.808;23.408;2023-01-23T11:04:56;95671.09;;;8.35;100.00
24280;BME280;12395;42.808;23.408;2023-01-23T11:07:31;95675.84;;;8.40;100.00
24280;BME280;12395;42.808;23.408;2023-01-23T11:12:34;95650.50;;;8.31;100.00
24280;BME280;12395;42.808;23.408;2023-01-23T11:15:32;95665.31;;;8.40;100.00
24280;BME280;12395;42.808;23.408;2023-01-23T11:17:59;95656.88;;;8.36;100.00
24280;BME280;12395;42.808;23.408;2023-01-23T11:20:37;95660.66;;;8.42;100.00
24280;BME280;12395;42.808;23.408;2023-01-23T11:23:15;95657.06;;;8.35;100.00
24280;BME280;12395;42.808;23.408;2023-01-23T11:25:42;95661.72;;;8.33;100.00
24280;BME280;12395;42.808;23.408;2023-01-23T11:30:53;95658.59;;;8.21;100.00
24280;BME280;12395;42.808;23.408;2023-01-23T11:33:40;95661.41;;;8.20;100.00
24280;BME280;12395;42.808;23.408;2023-01-23T11:38:44;95664.72;;;8.22;100.00
24280;BME280;12395;42.808;23.408;2023-01-23T11:41:11;95665.63;;;8.06;100.00
24280;BME280;12395;42.808;23.408;2023-01-23T11:43:38;95665.72;;;8.21;100.00
24280;BME280;12395;42.808;23.408;2023-01-23T11:54:54;95665.69;;;8.29;100.00
24280;BME280;12395;42.808;23.408;2023-01-23T12:09:14;95666.69;;;8.20;100.00
24280;BME280;12395;42.808;23.408;2023-01-23T12:23:05;95643.75;;;8.28;100.00
24280;BME280;12395;42.808;23.408;2023-01-23T12:25:40;95625.63;;;8.25;100.00
24280;BME280;12395;42.808;23.408;2023-01-23T12:28:26;95635.25;;;8.41;100.00
24280;BME280;12395;42.808;23.408;2023-01-23T12:33:55;95660.91;;;8.55;100.00
24280;BME280;12395;42.808;23.408;2023-01-23T12:42:29;95653.38;;;8.44;100.00
24280;BME280;12395;42.808;23.408;2023-01-23T12:45:14;95656.91;;;8.59;100.00
24280;BME280;12395;42.808;23.408;2023-01-23T12:53:14;95656.31;;;8.49;100.00
24280;BME280;12395;42.808;23.408;2023-01-23T12:58:27;95654.88;;;8.38;100.00
24280;BME280;12395;42.808;23.408;2023-01-23T13:09:13;95656.44;;;8.33;100.00
24280;BME280;12395;42.808;23.408;2023-01-23T13:14:39;95652.81;;;8.34;100.00
24280;BME280;12395;42.808;23.408;2023-01-23T13:17:38;95645.88;;;8.33;100.00
24280;BME280;12395;42.808;23.408;2023-01-23T13:23:43;95658.41;;;8.31;100.00
24280;BME280;12395;42.808;23.408;2023-01-23T13:28:51;95656.97;;;8.20;100.00
24280;BME280;12395;42.808;23.408;2023-01-23T13:31:33;95675.59;;;8.27;100.00
24280;BME280;12395;42.808;23.408;2023-01-23T13:34:01;95640.06;;;8.07;100.00
24280;BME280;12395;42.808;23.408;2023-01-23T13:39:23;95672.13;;;8.26;100.00
24280;BME280;12395;42.808;23.408;2023-01-23T13:44:34;95658.44;;;8.23;100.00
24280;BME280;12395;42.808;23.408;2023-01-23T13:52:20;95667.72;;;8.19;100.00
24280;BME280;12395;42.808;23.408;2023-01-23T13:57:58;95677.56;;;8.25;100.00
24280;BME280;12395;42.808;23.408;2023-01-23T14:00:24;95670.00;;;8.22;100.00
24280;BME280;12395;42.808;23.408;2023-01-23T14:02:57;95679.88;;;8.28;100.00
24280;BME280;12395;42.808;23.408;2023-01-23T14:05:44;95665.53;;;8.22;100.00
24280;BME280;12395;42.808;23.408;2023-01-23T14:08:20;95672.13;;;8.26;100.00
24280;BME280;12395;42.808;23.408;2023-01-23T14:10:48;95674.28;;;8.23;100.00
24280;BME280;12395;42.808;23.408;2023-01-23T14:13:18;95674.44;;;8.21;100.00
24280;BME280;12395;42.808;23.408;2023-01-23T14:15:54;95668.81;;;8.24;100.00
24280;BME280;12395;42.808;23.408;2023-01-23T14:18:47;95667.88;;;8.25;100.00
24280;BME280;12395;42.808;23.408;2023-01-23T14:21:24;95662.72;;;8.24;100.00
24280;BME280;12395;42.808;23.408;2023-01-23T14:23:53;95665.31;;;8.32;100.00
24280;BME280;12395;42.808;23.408;2023-01-23T14:26:23;95669.31;;;8.28;100.00
24280;BME280;12395;42.808;23.408;2023-01-23T14:31:28;95675.63;;;8.19;100.00
24280;BME280;12395;42.808;23.408;2023-01-23T14:33:59;95682.22;;;8.23;100.00
24280;BME280;12395;42.808;23.408;2023-01-23T14:36:25;95672.56;;;8.07;100.00
24280;BME280;12395;42.808;23.408;2023-01-23T14:38:51;95679.63;;;8.07;100.00
24280;BME280;12395;42.808;23.408;2023-01-23T14:41:20;95679.34;;;8.02;100.00
24280;BME280;12395;42.808;23.408;2023-01-23T14:43:48;95683.97;;;8.00;100.00
24280;BME280;12395;42.808;23.408;2023-01-23T14:46:19;95692.38;;;8.03;100.00
24280;BME280;12395;42.808;23.408;2023-01-23T14:48:50;95684.31;;;7.97;100.00
24280;BME280;12395;42.808;23.408;2023-01-23T14:51:20;95695.19;;;8.02;100.00
24280;BME280;12395;42.808;23.408;2023-01-23T14:53:52;95698.19;;;7.91;100.00